Time,TemperatureF,DewpointF,PressureIn,WindDirection,WindDirectionDegrees,WindSpeedMPH,WindSpeedGustMPH,Humidity,HourlyPrecipIn,Conditions,Clouds,dailyrainin,SoftwareType,DateUTC
2013-08-15 00:02:00,61.0,46.0,29.95,NW,323,0.0,0.0,57,0.00,,,0.00,,2013-08-15 06:02:00,
2013-08-15 00:21:00,60.0,43.0,29.95,NW,323,0.0,0.0,54,0.00,,,0.00,,2013-08-15 06:21:00,
2013-08-15 00:31:00,60.0,43.0,29.95,NW,323,0.0,0.0,54,0.00,,,0.00,,2013-08-15 06:31:00,
2013-08-15 00:52:00,59.0,45.0,29.95,NW,323,0.0,0.0,60,0.00,,,0.00,,2013-08-15 06:52:00,
2013-08-15 01:01:00,59.0,45.0,29.95,NW,323,0.0,0.0,60,0.00,,,0.00,,2013-08-15 07:01:00,
2013-08-15 01:21:00,58.0,43.0,29.95,NW,324,0.0,1.0,58,0.00,,,0.00,,2013-08-15 07:21:00,
2013-08-15 01:32:00,58.0,43.0,29.95,NW,324,0.0,1.0,58,0.00,,,0.00,,2013-08-15 07:32:00,
2013-08-15 01:52:00,58.0,43.0,29.94,NW,324,0.0,1.0,57,0.00,,,0.00,,2013-08-15 07:52:00,
2013-08-15 02:02:00,58.0,43.0,29.94,NW,324,0.0,1.0,57,0.00,,,0.00,,2013-08-15 08:02:00,
2013-08-15 02:11:00,58.0,43.0,29.94,NW,324,0.0,1.0,57,0.00,,,0.00,,2013-08-15 08:11:00,
2013-08-15 02:21:00,57.0,41.0,29.94,NW,324,0.0,1.0,56,0.00,,,0.00,,2013-08-15 08:21:00,
2013-08-15 02:32:00,57.0,41.0,29.94,NW,324,0.0,1.0,56,0.00,,,0.00,,2013-08-15 08:32:00,
2013-08-15 02:52:00,57.0,42.0,29.94,NW,324,0.0,0.0,57,0.00,,,0.00,,2013-08-15 08:52:00,
2013-08-15 03:01:00,57.0,42.0,29.94,NW,324,0.0,0.0,57,0.00,,,0.00,,2013-08-15 09:01:00,
2013-08-15 03:11:00,57.0,42.0,29.94,NW,324,0.0,0.0,57,0.00,,,0.00,,2013-08-15 09:11:00,
2013-08-15 03:21:00,56.0,42.0,29.94,NW,324,0.0,0.0,60,0.00,,,0.00,,2013-08-15 09:21:00,
2013-08-15 03:33:00,56.0,42.0,29.94,NW,324,0.0,0.0,60,0.00,,,0.00,,2013-08-15 09:33:00,
2013-08-15 03:53:00,55.0,42.0,29.94,NW,324,0.0,0.0,61,0.00,,,0.00,,2013-08-15 09:53:00,
2013-08-15 04:03:00,55.0,42.0,29.94,NW,324,0.0,0.0,61,0.00,,,0.00,,2013-08-15 10:03:00,
2013-08-15 04:12:00,55.0,42.0,29.94,NW,324,0.0,0.0,61,0.00,,,0.00,,2013-08-15 10:12:00,
2013-08-15 04:22:00,55.0,42.0,29.95,NW,324,0.0,0.0,61,0.00,,,0.00,,2013-08-15 10:22:00,
2013-08-15 04:32:00,55.0,42.0,29.95,NW,324,0.0,0.0,61,0.00,,,0.00,,2013-08-15 10:32:00,
2013-08-15 04:52:00,55.0,41.0,29.96,NW,324,0.0,0.0,58,0.00,,,0.00,,2013-08-15 10:52:00,
2013-08-15 05:02:00,55.0,41.0,29.96,NW,324,0.0,0.0,58,0.00,,,0.00,,2013-08-15 11:02:00,
2013-08-15 05:22:00,54.0,41.0,29.95,NW,324,0.0,0.0,61,0.00,,,0.00,,2013-08-15 11:22:00,
2013-08-15 05:31:00,54.0,41.0,29.95,NW,324,0.0,0.0,61,0.00,,,0.00,,2013-08-15 11:31:00,
2013-08-15 05:52:00,54.0,42.0,29.93,NW,324,0.0,1.0,64,0.00,,,0.00,,2013-08-15 11:52:00,
2013-08-15 06:01:00,54.0,42.0,29.93,NW,324,0.0,1.0,64,0.00,,,0.00,,2013-08-15 12:01:00,
2013-08-15 06:11:00,54.0,42.0,29.93,NW,324,0.0,1.0,64,0.00,,,0.00,,2013-08-15 12:11:00,
2013-08-15 06:21:00,53.0,41.0,29.93,NW,324,0.0,1.0,63,0.00,,,0.00,,2013-08-15 12:21:00,
2013-08-15 06:31:00,53.0,41.0,29.93,NW,324,0.0,1.0,63,0.00,,,0.00,,2013-08-15 12:31:00,
2013-08-15 06:52:00,52.0,41.0,29.93,NW,324,0.0,0.0,67,0.00,,,0.00,,2013-08-15 12:52:00,
2013-08-15 07:11:00,52.0,41.0,29.93,NW,324,0.0,0.0,67,0.00,,,0.00,,2013-08-15 13:11:00,
2013-08-15 07:21:00,52.0,41.0,29.95,NW,324,0.0,1.0,66,0.00,,,0.00,,2013-08-15 13:21:00,
2013-08-15 07:32:00,52.0,41.0,29.95,NW,324,0.0,1.0,66,0.00,,,0.00,,2013-08-15 13:32:00,
2013-08-15 07:52:00,53.0,43.0,29.94,NW,324,0.0,0.0,69,0.00,,,0.00,,2013-08-15 13:52:00,
2013-08-15 08:01:00,53.0,43.0,29.94,NW,324,0.0,0.0,69,0.00,,,0.00,,2013-08-15 14:01:00,
2013-08-15 08:22:00,55.0,45.0,29.96,NW,324,0.0,0.0,68,0.00,,,0.00,,2013-08-15 14:22:00,
2013-08-15 08:32:00,55.0,45.0,29.96,NW,324,0.0,0.0,68,0.00,,,0.00,,2013-08-15 14:32:00,
2013-08-15 08:54:00,58.0,46.0,29.96,NE,49,0.0,0.0,65,0.00,,,0.00,,2013-08-15 14:54:00,
2013-08-15 09:04:00,58.0,46.0,29.96,NE,49,0.0,0.0,65,0.00,,,0.00,,2013-08-15 15:04:00,
2013-08-15 10:35:00,73.0,44.0,29.98,North,360,0.0,4.0,36,0.00,,,0.00,,2013-08-15 16:35:00,
2013-08-15 10:55:00,75.0,45.0,29.97,NNW,331,1.0,3.0,34,0.00,,,0.00,,2013-08-15 16:55:00,
2013-08-15 11:06:00,75.0,45.0,29.97,NNW,331,1.0,3.0,34,0.00,,,0.00,,2013-08-15 17:06:00,
2013-08-15 11:18:00,75.0,45.0,29.97,NNW,331,1.0,3.0,34,0.00,,,0.00,,2013-08-15 17:18:00,
2013-08-15 11:31:00,77.0,-99.9,29.97,SSE,150,0.0,4.0,27,0.00,,,0.00,,2013-08-15 17:31:00,
2013-08-15 12:00:00,-999.0,-99.9,29.96,NNE,28,0.0,6.0,-999,-99.99,,,-99.99,,2013-08-15 18:00:00,
2013-08-15 12:09:00,79.0,44.0,29.96,NNE,28,0.0,6.0,29,0.00,,,0.00,,2013-08-15 18:09:00,
2013-08-15 12:23:00,79.0,44.0,29.96,NNE,28,0.0,6.0,29,0.00,,,0.00,,2013-08-15 18:23:00,
2013-08-15 12:32:00,-999.0,-99.9,29.95,SW,223,1.0,4.0,-999,0.00,,,0.00,,2013-08-15 18:32:00,
2013-08-15 12:40:00,-999.0,-99.9,29.95,SW,223,1.0,4.0,27,0.00,,,0.00,,2013-08-15 18:40:00,
2013-08-15 13:06:00,-999.0,-99.9,29.96,North,360,3.0,5.0,-999,0.00,,,0.00,,2013-08-15 19:06:00,
2013-08-15 13:17:00,81.0,45.0,29.96,North,360,3.0,5.0,28,0.00,,,0.00,,2013-08-15 19:17:00,
2013-08-15 13:31:00,-999.0,-99.9,29.96,NE,43,2.0,5.0,-999,-99.99,,,-99.99,,2013-08-15 19:31:00,
2013-08-15 13:39:00,84.0,44.0,29.96,NE,43,2.0,5.0,25,0.00,,,0.00,,2013-08-15 19:39:00,
2013-08-15 14:07:00,86.0,44.0,29.95,NW,314,2.0,4.0,23,0.00,,,0.00,,2013-08-15 20:07:00,
2013-08-15 14:26:00,86.0,45.0,29.94,NE,52,1.0,9.0,24,0.00,,,0.00,,2013-08-15 20:26:00,
2013-08-15 14:33:00,86.0,45.0,29.94,NE,52,1.0,9.0,24,0.00,,,0.00,,2013-08-15 20:33:00,
2013-08-15 14:55:00,87.0,46.0,29.94,East,84,2.0,5.0,24,0.00,,,0.00,,2013-08-15 20:55:00,
2013-08-15 15:03:00,87.0,46.0,29.94,East,84,2.0,5.0,24,0.00,,,0.00,,2013-08-15 21:03:00,
2013-08-15 15:30:00,85.0,45.0,29.94,SE,124,0.0,5.0,25,0.00,,,0.00,,2013-08-15 21:30:00,
2013-08-15 15:57:00,85.0,45.0,29.94,East,91,1.0,6.0,25,0.00,,,0.00,,2013-08-15 21:57:00,
2013-08-15 16:08:00,85.0,45.0,29.94,East,91,1.0,6.0,25,0.00,,,0.00,,2013-08-15 22:08:00,
2013-08-15 16:29:00,85.0,45.0,29.93,East,86,2.0,4.0,25,0.00,,,0.00,,2013-08-15 22:29:00,
2013-08-15 16:40:00,85.0,45.0,29.93,East,86,2.0,4.0,25,0.00,,,0.00,,2013-08-15 22:40:00,
2013-08-15 16:58:00,83.0,45.0,29.92,ENE,60,0.0,3.0,26,0.00,,,0.00,,2013-08-15 22:58:00,
2013-08-15 17:07:00,83.0,45.0,29.92,ENE,60,0.0,3.0,26,0.00,,,0.00,,2013-08-15 23:07:00,
2013-08-15 17:32:00,-999.0,-99.9,29.92,East,88,0.0,3.0,28,0.00,,,0.00,,2013-08-15 23:32:00,
2013-08-15 17:40:00,83.0,47.0,29.92,East,88,0.0,3.0,28,0.00,,,0.00,,2013-08-15 23:40:00,
2013-08-15 17:55:00,83.0,46.0,29.92,East,88,0.0,1.0,27,0.00,,,0.00,,2013-08-15 23:55:00,
2013-08-15 18:08:00,83.0,46.0,29.92,East,88,0.0,1.0,27,0.00,,,0.00,,2013-08-16 00:08:00,
2013-08-15 18:24:00,83.0,44.0,29.92,East,83,0.0,3.0,25,0.00,,,0.00,,2013-08-16 00:24:00,
2013-08-15 18:37:00,83.0,44.0,29.92,East,83,0.0,3.0,25,0.00,,,0.00,,2013-08-16 00:37:00,
2013-08-15 18:46:00,83.0,44.0,29.92,East,83,0.0,3.0,25,0.00,,,0.00,,2013-08-16 00:46:00,
2013-08-15 18:52:00,84.0,43.0,29.91,NNW,347,0.0,2.0,24,0.00,,,0.00,,2013-08-16 00:52:00,
2013-08-15 19:01:00,84.0,43.0,29.91,NNW,347,0.0,2.0,24,0.00,,,0.00,,2013-08-16 01:01:00,
2013-08-15 19:26:00,83.0,45.0,29.91,NNW,346,0.0,2.0,26,0.00,,,0.00,,2013-08-16 01:26:00,
2013-08-15 19:41:00,-999.0,-99.9,29.91,NNW,346,0.0,2.0,-999,-99.99,,,-99.99,,2013-08-16 01:41:00,
2013-08-15 19:54:00,81.0,42.0,29.91,WSW,240,0.0,1.0,25,0.00,,,0.00,,2013-08-16 01:54:00,
2013-08-15 20:02:00,81.0,42.0,29.91,WSW,240,0.0,1.0,25,0.00,,,0.00,,2013-08-16 02:02:00,
2013-08-15 20:21:00,79.0,42.0,29.91,WSW,240,0.0,1.0,27,0.00,,,0.00,,2013-08-16 02:21:00,
2013-08-15 20:32:00,79.0,42.0,29.91,WSW,240,0.0,1.0,27,0.00,,,0.00,,2013-08-16 02:32:00,
2013-08-15 20:44:00,79.0,42.0,29.91,WSW,240,0.0,1.0,27,0.00,,,0.00,,2013-08-16 02:44:00,
2013-08-15 21:21:00,71.0,47.0,29.91,WSW,240,0.0,1.0,43,0.00,,,0.00,,2013-08-16 03:21:00,
2013-08-15 21:33:00,71.0,47.0,29.91,WSW,240,0.0,1.0,43,0.00,,,0.00,,2013-08-16 03:33:00,
2013-08-15 21:53:00,68.0,45.0,29.94,WSW,240,0.0,1.0,44,0.00,,,0.00,,2013-08-16 03:53:00,
2013-08-15 22:03:00,68.0,45.0,29.94,WSW,240,0.0,1.0,44,0.00,,,0.00,,2013-08-16 04:03:00,
2013-08-15 22:23:00,66.0,44.0,29.93,WSW,240,0.0,0.0,45,0.00,,,0.00,,2013-08-16 04:23:00,
2013-08-15 22:33:00,66.0,44.0,29.93,WSW,240,0.0,0.0,45,0.00,,,0.00,,2013-08-16 04:33:00,
2013-08-15 22:53:00,65.0,44.0,29.94,WSW,240,0.0,1.0,46,0.00,,,0.00,,2013-08-16 04:53:00,
2013-08-15 23:01:00,65.0,44.0,29.94,WSW,240,0.0,1.0,46,0.00,,,0.00,,2013-08-16 05:01:00,
2013-08-15 23:11:00,65.0,44.0,29.94,WSW,240,0.0,1.0,46,0.00,,,0.00,,2013-08-16 05:11:00,
2013-08-15 23:21:00,63.0,44.0,29.92,WSW,240,0.0,0.0,49,0.00,,,0.00,,2013-08-16 05:21:00,
2013-08-15 23:31:00,63.0,44.0,29.92,WSW,240,0.0,0.0,49,0.00,,,0.00,,2013-08-16 05:31:00,